sensor_id;sensor_type;location;lat;lon;timestamp;P1;durP1;ratioP1;P2;durP2;ratioP2
55186;SDS011;55457;52.002;5.464;2022-11-20T00:00:49;6.18;;;4.32;;
55186;SDS011;55457;52.002;5.464;2022-11-20T00:03:15;7.80;;;3.83;;
55186;SDS011;55457;52.002;5.464;2022-11-20T00:05:40;5.93;;;4.03;;
55186;SDS011;55457;52.002;5.464;2022-11-20T00:08:05;4.30;;;3.78;;
55186;SDS011;55457;52.002;5.464;2022-11-20T00:10:31;5.82;;;3.88;;
55186;SDS011;55457;52.002;5.464;2022-11-20T00:12:59;7.93;;;3.70;;
55186;SDS011;55457;52.002;5.464;2022-11-20T00:15:24;6.72;;;4.10;;
55186;SDS011;55457;52.002;5.464;2022-11-20T00:17:50;5.63;;;3.30;;
55186;SDS011;55457;52.002;5.464;2022-11-20T00:20:15;6.05;;;3.63;;
55186;SDS011;55457;52.002;5.464;2022-11-20T00:22:41;6.38;;;4.15;;
55186;SDS011;55457;52.002;5.464;2022-11-20T00:25:06;8.10;;;4.53;;
55186;SDS011;55457;52.002;5.464;2022-11-20T00:27:32;5.10;;;3.80;;
55186;SDS011;55457;52.002;5.464;2022-11-20T00:29:57;6.32;;;3.45;;
55186;SDS011;55457;52.002;5.464;2022-11-20T00:32:22;5.53;;;3.72;;
55186;SDS011;55457;52.002;5.464;2022-11-20T00:34:48;4.50;;;3.70;;
55186;SDS011;55457;52.002;5.464;2022-11-20T00:37:13;6.95;;;3.80;;
55186;SDS011;55457;52.002;5.464;2022-11-20T00:39:38;4.65;;;3.67;;
55186;SDS011;55457;52.002;5.464;2022-11-20T00:42:04;5.38;;;2.85;;
55186;SDS011;55457;52.002;5.464;2022-11-20T00:44:29;4.80;;;3.22;;
55186;SDS011;55457;52.002;5.464;2022-11-20T00:46:54;5.40;;;3.95;;
55186;SDS011;55457;52.002;5.464;2022-11-20T00:49:19;4.43;;;3.60;;
55186;SDS011;55457;52.002;5.464;2022-11-20T00:51:45;5.43;;;3.20;;
55186;SDS011;55457;52.002;5.464;2022-11-20T00:54:10;6.32;;;3.55;;
55186;SDS011;55457;52.002;5.464;2022-11-20T00:56:35;4.72;;;3.60;;
55186;SDS011;55457;52.002;5.464;2022-11-20T00:59:01;4.57;;;3.67;;
55186;SDS011;55457;52.002;5.464;2022-11-20T01:01:27;10.13;;;3.70;;
55186;SDS011;55457;52.002;5.464;2022-11-20T01:03:54;5.57;;;4.00;;
55186;SDS011;55457;52.002;5.464;2022-11-20T01:08:47;3.73;;;3.20;;
55186;SDS011;55457;52.002;5.464;2022-11-20T01:11:14;4.43;;;3.03;;
55186;SDS011;55457;52.002;5.464;2022-11-20T01:13:42;4.75;;;3.78;;
55186;SDS011;55457;52.002;5.464;2022-11-20T01:18:44;3.92;;;3.20;;
55186;SDS011;55457;52.002;5.464;2022-11-20T01:21:13;6.45;;;4.00;;
55186;SDS011;55457;52.002;5.464;2022-11-20T01:23:40;7.10;;;3.90;;
55186;SDS011;55457;52.002;5.464;2022-11-20T01:26:11;5.30;;;3.38;;
55186;SDS011;55457;52.002;5.464;2022-11-20T01:28:38;5.93;;;4.15;;
55186;SDS011;55457;52.002;5.464;2022-11-20T01:31:11;4.28;;;3.63;;
55186;SDS011;55457;52.002;5.464;2022-11-20T01:33:49;5.57;;;3.83;;
55186;SDS011;55457;52.002;5.464;2022-11-20T01:36:16;5.10;;;3.92;;
55186;SDS011;55457;52.002;5.464;2022-11-20T01:38:43;4.50;;;3.58;;
55186;SDS011;55457;52.002;5.464;2022-11-20T01:41:09;4.20;;;3.25;;
55186;SDS011;55457;52.002;5.464;2022-11-20T01:43:35;4.72;;;3.72;;
55186;SDS011;55457;52.002;5.464;2022-11-20T01:51:57;6.40;;;3.75;;
55186;SDS011;55457;52.002;5.464;2022-11-20T01:55:09;4.65;;;3.33;;
55186;SDS011;55457;52.002;5.464;2022-11-20T01:57:14;3.70;;;3.15;;
55186;SDS011;55457;52.002;5.464;2022-11-20T01:59:44;5.07;;;3.53;;
55186;SDS011;55457;52.002;5.464;2022-11-20T02:02:12;5.88;;;3.00;;
55186;SDS011;55457;52.002;5.464;2022-11-20T02:04:38;5.43;;;3.40;;
55186;SDS011;55457;52.002;5.464;2022-11-20T02:07:04;5.05;;;3.65;;
55186;SDS011;55457;52.002;5.464;2022-11-20T02:09:30;3.45;;;2.95;;
55186;SDS011;55457;52.002;5.464;2022-11-20T02:11:56;3.80;;;3.00;;
55186;SDS011;55457;52.002;5.464;2022-11-20T02:14:23;3.85;;;2.90;;
55186;SDS011;55457;52.002;5.464;2022-11-20T02:16:50;5.75;;;3.63;;
55186;SDS011;55457;52.002;5.464;2022-11-20T02:19:28;6.55;;;3.85;;
55186;SDS011;55457;52.002;5.464;2022-11-20T02:24:42;3.22;;;2.90;;
55186;SDS011;55457;52.002;5.464;2022-11-20T02:27:11;5.95;;;3.70;;
55186;SDS011;55457;52.002;5.464;2022-11-20T02:29:43;5.20;;;3.45;;
55186;SDS011;55457;52.002;5.464;2022-11-20T02:32:30;4.78;;;3.80;;
55186;SDS011;55457;52.002;5.464;2022-11-20T02:34:57;4.43;;;3.10;;
55186;SDS011;55457;52.002;5.464;2022-11-20T02:37:23;5.25;;;3.70;;
55186;SDS011;55457;52.002;5.464;2022-11-20T02:39:55;4.50;;;3.53;;
55186;SDS011;55457;52.002;5.464;2022-11-20T02:42:21;3.97;;;3.22;;
55186;SDS011;55457;52.002;5.464;2022-11-20T02:44:46;5.82;;;3.97;;
55186;SDS011;55457;52.002;5.464;2022-11-20T02:47:11;5.25;;;4.05;;
55186;SDS011;55457;52.002;5.464;2022-11-20T02:49:37;5.82;;;3.58;;
55186;SDS011;55457;52.002;5.464;2022-11-20T02:52:02;3.00;;;2.70;;
55186;SDS011;55457;52.002;5.464;2022-11-20T02:54:28;5.30;;;3.58;;
55186;SDS011;55457;52.002;5.464;2022-11-20T02:56:53;4.88;;;3.58;;
55186;SDS011;55457;52.002;5.464;2022-11-20T02:59:18;5.32;;;3.05;;
55186;SDS011;55457;52.002;5.464;2022-11-20T03:01:43;4.13;;;3.50;;
55186;SDS011;55457;52.002;5.464;2022-11-20T03:04:09;4.30;;;2.83;;
55186;SDS011;55457;52.002;5.464;2022-11-20T03:06:34;5.55;;;3.13;;
55186;SDS011;55457;52.002;5.464;2022-11-20T03:08:59;4.20;;;3.05;;
55186;SDS011;55457;52.002;5.464;2022-11-20T03:11:25;4.50;;;3.45;;
55186;SDS011;55457;52.002;5.464;2022-11-20T03:13:50;4.82;;;3.20;;
55186;SDS011;55457;52.002;5.464;2022-11-20T03:16:17;3.45;;;2.78;;
55186;SDS011;55457;52.002;5.464;2022-11-20T03:18:44;4.47;;;3.10;;
55186;SDS011;55457;52.002;5.464;2022-11-20T03:21:11;4.88;;;3.22;;
55186;SDS011;55457;52.002;5.464;2022-11-20T03:23:38;4.05;;;3.17;;
55186;SDS011;55457;52.002;5.464;2022-11-20T03:26:14;5.15;;;3.13;;
55186;SDS011;55457;52.002;5.464;2022-11-20T03:28:42;4.00;;;2.90;;
55186;SDS011;55457;52.002;5.464;2022-11-20T03:31:12;6.35;;;3.15;;
55186;SDS011;55457;52.002;5.464;2022-11-20T03:33:39;3.97;;;3.33;;
55186;SDS011;55457;52.002;5.464;2022-11-20T03:36:06;7.28;;;3.28;;
55186;SDS011;55457;52.002;5.464;2022-11-20T03:38:34;3.83;;;3.35;;
55186;SDS011;55457;52.002;5.464;2022-11-20T03:41:01;4.47;;;3.33;;
55186;SDS011;55457;52.002;5.464;2022-11-20T03:43:28;4.80;;;3.22;;
55186;SDS011;55457;52.002;5.464;2022-11-20T03:45:53;3.75;;;2.95;;
55186;SDS011;55457;52.002;5.464;2022-11-20T03:48:19;4.53;;;3.05;;
55186;SDS011;55457;52.002;5.464;2022-11-20T03:50:44;4.70;;;3.30;;
55186;SDS011;55457;52.002;5.464;2022-11-20T03:53:12;4.38;;;3.60;;
55186;SDS011;55457;52.002;5.464;2022-11-20T03:55:38;4.72;;;3.70;;
55186;SDS011;55457;52.002;5.464;2022-11-20T03:58:03;4.70;;;3.30;;
55186;SDS011;55457;52.002;5.464;2022-11-20T04:00:29;3.80;;;3.15;;
55186;SDS011;55457;52.002;5.464;2022-11-20T04:02:57;4.80;;;3.47;;
55186;SDS011;55457;52.002;5.464;2022-11-20T04:05:23;5.50;;;3.50;;
55186;SDS011;55457;52.002;5.464;2022-11-20T04:07:48;4.50;;;3.53;;
55186;SDS011;55457;52.002;5.464;2022-11-20T04:10:14;4.28;;;3.35;;
55186;SDS011;55457;52.002;5.464;2022-11-20T04:12:39;4.43;;;3.00;;
55186;SDS011;55457;52.002;5.464;2022-11-20T04:15:04;4.93;;;3.50;;
55186;SDS011;55457;52.002;5.464;2022-11-20T04:17:30;5.07;;;3.55;;
55186;SDS011;55457;52.002;5.464;2022-11-20T04:19:55;3.38;;;3.00;;
55186;SDS011;55457;52.002;5.464;2022-11-20T04:22:20;4.07;;;2.83;;
55186;SDS011;55457;52.002;5.464;2022-11-20T04:24:46;4.32;;;3.35;;
55186;SDS011;55457;52.002;5.464;2022-11-20T04:27:11;4.65;;;3.30;;
55186;SDS011;55457;52.002;5.464;2022-11-20T04:29:37;4.78;;;3.10;;
55186;SDS011;55457;52.002;5.464;2022-11-20T04:32:02;4.05;;;3.28;;
55186;SDS011;55457;52.002;5.464;2022-11-20T04:34:27;4.70;;;3.55;;
55186;SDS011;55457;52.002;5.464;2022-11-20T04:36:52;5.05;;;3.72;;
55186;SDS011;55457;52.002;5.464;2022-11-20T04:39:18;4.00;;;3.05;;
55186;SDS011;55457;52.002;5.464;2022-11-20T04:41:43;3.28;;;2.70;;
55186;SDS011;55457;52.002;5.464;2022-11-20T04:44:08;4.40;;;3.00;;
55186;SDS011;55457;52.002;5.464;2022-11-20T04:46:35;4.53;;;3.05;;
55186;SDS011;55457;52.002;5.464;2022-11-20T04:49:02;3.38;;;2.50;;
55186;SDS011;55457;52.002;5.464;2022-11-20T04:51:27;4.32;;;3.38;;
55186;SDS011;55457;52.002;5.464;2022-11-20T04:53:53;4.15;;;3.13;;
55186;SDS011;55457;52.002;5.464;2022-11-20T04:56:19;4.38;;;3.30;;
55186;SDS011;55457;52.002;5.464;2022-11-20T04:58:44;3.92;;;3.00;;
55186;SDS011;55457;52.002;5.464;2022-11-20T05:01:11;4.15;;;3.10;;
55186;SDS011;55457;52.002;5.464;2022-11-20T05:03:38;4.93;;;3.67;;
55186;SDS011;55457;52.002;5.464;2022-11-20T05:06:05;6.00;;;3.30;;
55186;SDS011;55457;52.002;5.464;2022-11-20T05:08:32;3.70;;;3.17;;
55186;SDS011;55457;52.002;5.464;2022-11-20T05:11:05;4.47;;;3.28;;
55186;SDS011;55457;52.002;5.464;2022-11-20T05:13:35;5.15;;;4.20;;
55186;SDS011;55457;52.002;5.464;2022-11-20T05:16:05;4.25;;;3.28;;
55186;SDS011;55457;52.002;5.464;2022-11-20T05:18:38;3.42;;;2.92;;
55186;SDS011;55457;52.002;5.464;2022-11-20T05:21:04;4.78;;;3.60;;
55186;SDS011;55457;52.002;5.464;2022-11-20T05:23:30;4.43;;;3.03;;
55186;SDS011;55457;52.002;5.464;2022-11-20T05:25:56;4.72;;;3.20;;
55186;SDS011;55457;52.002;5.464;2022-11-20T05:28:22;4.65;;;3.95;;
55186;SDS011;55457;52.002;5.464;2022-11-20T05:30:48;5.72;;;3.85;;
55186;SDS011;55457;52.002;5.464;2022-11-20T05:33:14;3.65;;;2.67;;
55186;SDS011;55457;52.002;5.464;2022-11-20T05:35:40;4.60;;;3.03;;
55186;SDS011;55457;52.002;5.464;2022-11-20T05:38:06;4.45;;;3.10;;
55186;SDS011;55457;52.002;5.464;2022-11-20T05:40:31;4.40;;;3.17;;
55186;SDS011;55457;52.002;5.464;2022-11-20T05:42:56;4.25;;;2.72;;
55186;SDS011;55457;52.002;5.464;2022-11-20T05:45:22;3.80;;;3.10;;
55186;SDS011;55457;52.002;5.464;2022-11-20T05:47:47;4.43;;;3.17;;
55186;SDS011;55457;52.002;5.464;2022-11-20T05:50:13;4.60;;;3.47;;
55186;SDS011;55457;52.002;5.464;2022-11-20T05:52:39;4.82;;;3.10;;
55186;SDS011;55457;52.002;5.464;2022-11-20T05:55:05;4.20;;;3.40;;
55186;SDS011;55457;52.002;5.464;2022-11-20T05:57:31;3.45;;;2.78;;
55186;SDS011;55457;52.002;5.464;2022-11-20T05:59:57;4.05;;;3.10;;
55186;SDS011;55457;52.002;5.464;2022-11-20T06:02:22;3.42;;;3.10;;
55186;SDS011;55457;52.002;5.464;2022-11-20T06:04:47;4.18;;;3.25;;
55186;SDS011;55457;52.002;5.464;2022-11-20T06:07:13;3.53;;;2.83;;
55186;SDS011;55457;52.002;5.464;2022-11-20T06:09:39;4.55;;;3.42;;
55186;SDS011;55457;52.002;5.464;2022-11-20T06:12:04;4.95;;;3.38;;
55186;SDS011;55457;52.002;5.464;2022-11-20T06:14:30;3.42;;;3.10;;
55186;SDS011;55457;52.002;5.464;2022-11-20T06:16:55;3.83;;;3.25;;
55186;SDS011;55457;52.002;5.464;2022-11-20T06:19:20;4.53;;;2.85;;
55186;SDS011;55457;52.002;5.464;2022-11-20T06:21:47;5.57;;;3.65;;
55186;SDS011;55457;52.002;5.464;2022-11-20T06:24:13;3.72;;;2.95;;
55186;SDS011;55457;52.002;5.464;2022-11-20T06:26:38;4.70;;;3.42;;
55186;SDS011;55457;52.002;5.464;2022-11-20T06:29:03;3.88;;;3.00;;
55186;SDS011;55457;52.002;5.464;2022-11-20T06:31:29;5.00;;;3.35;;
55186;SDS011;55457;52.002;5.464;2022-11-20T06:33:54;3.92;;;2.85;;
55186;SDS011;55457;52.002;5.464;2022-11-20T06:36:21;4.45;;;3.03;;
55186;SDS011;55457;52.002;5.464;2022-11-20T06:38:47;4.90;;;3.35;;
55186;SDS011;55457;52.002;5.464;2022-11-20T06:41:14;4.15;;;3.17;;
55186;SDS011;55457;52.002;5.464;2022-11-20T06:43:41;4.60;;;3.40;;
55186;SDS011;55457;52.002;5.464;2022-11-20T06:46:08;4.72;;;3.83;;
55186;SDS011;55457;52.002;5.464;2022-11-20T06:48:35;4.80;;;3.15;;
55186;SDS011;55457;52.002;5.464;2022-11-20T06:51:02;3.80;;;2.83;;
55186;SDS011;55457;52.002;5.464;2022-11-20T06:53:28;3.47;;;2.72;;
55186;SDS011;55457;52.002;5.464;2022-11-20T06:55:55;3.60;;;2.88;;
55186;SDS011;55457;52.002;5.464;2022-11-20T06:58:21;4.05;;;3.08;;
55186;SDS011;55457;52.002;5.464;2022-11-20T07:00:46;5.03;;;3.38;;
55186;SDS011;55457;52.002;5.464;2022-11-20T07:03:12;4.30;;;3.25;;
55186;SDS011;55457;52.002;5.464;2022-11-20T07:05:38;4.53;;;3.08;;
55186;SDS011;55457;52.002;5.464;2022-11-20T07:08:03;3.50;;;2.80;;
55186;SDS011;55457;52.002;5.464;2022-11-20T07:10:29;4.13;;;3.22;;
55186;SDS011;55457;52.002;5.464;2022-11-20T07:12:55;6.20;;;3.22;;
55186;SDS011;55457;52.002;5.464;2022-11-20T07:15:21;3.65;;;3.15;;
55186;SDS011;55457;52.002;5.464;2022-11-20T07:17:48;4.00;;;3.00;;
55186;SDS011;55457;52.002;5.464;2022-11-20T07:20:13;4.18;;;3.13;;
55186;SDS011;55457;52.002;5.464;2022-11-20T07:22:39;4.32;;;3.38;;
55186;SDS011;55457;52.002;5.464;2022-11-20T07:25:05;4.38;;;3.30;;
55186;SDS011;55457;52.002;5.464;2022-11-20T07:27:31;3.85;;;3.30;;
55186;SDS011;55457;52.002;5.464;2022-11-20T07:29:57;5.85;;;3.15;;
55186;SDS011;55457;52.002;5.464;2022-11-20T07:32:22;4.03;;;3.05;;
55186;SDS011;55457;52.002;5.464;2022-11-20T07:34:48;5.57;;;3.67;;
55186;SDS011;55457;52.002;5.464;2022-11-20T07:37:13;3.97;;;3.15;;
55186;SDS011;55457;52.002;5.464;2022-11-20T07:39:39;4.50;;;3.22;;
55186;SDS011;55457;52.002;5.464;2022-11-20T07:42:05;3.55;;;2.90;;
55186;SDS011;55457;52.002;5.464;2022-11-20T07:44:31;3.80;;;3.40;;
55186;SDS011;55457;52.002;5.464;2022-11-20T07:46:57;5.20;;;3.42;;
55186;SDS011;55457;52.002;5.464;2022-11-20T07:49:22;4.55;;;3.33;;
55186;SDS011;55457;52.002;5.464;2022-11-20T07:51:49;3.50;;;2.72;;
55186;SDS011;55457;52.002;5.464;2022-11-20T07:54:16;3.65;;;2.80;;
55186;SDS011;55457;52.002;5.464;2022-11-20T07:56:41;4.45;;;3.28;;
55186;SDS011;55457;52.002;5.464;2022-11-20T07:59:06;5.07;;;3.30;;
55186;SDS011;55457;52.002;5.464;2022-11-20T08:01:32;7.05;;;3.72;;
55186;SDS011;55457;52.002;5.464;2022-11-20T08:03:57;6.65;;;3.53;;
55186;SDS011;55457;52.002;5.464;2022-11-20T08:06:22;7.97;;;3.47;;
55186;SDS011;55457;52.002;5.464;2022-11-20T08:08:49;5.38;;;3.72;;
55186;SDS011;55457;52.002;5.464;2022-11-20T08:11:15;3.55;;;2.90;;
55186;SDS011;55457;52.002;5.464;2022-11-20T08:13:58;3.95;;;3.08;;
55186;SDS011;55457;52.002;5.464;2022-11-20T08:19:05;3.67;;;2.80;;
55186;SDS011;55457;52.002;5.464;2022-11-20T08:21:30;5.72;;;3.47;;
55186;SDS011;55457;52.002;5.464;2022-11-20T08:23:56;4.47;;;3.35;;
55186;SDS011;55457;52.002;5.464;2022-11-20T08:26:22;4.53;;;3.15;;
55186;SDS011;55457;52.002;5.464;2022-11-20T08:28:48;3.95;;;3.03;;
55186;SDS011;55457;52.002;5.464;2022-11-20T08:31:14;3.90;;;3.00;;
55186;SDS011;55457;52.002;5.464;2022-11-20T08:33:39;4.97;;;3.55;;
55186;SDS011;55457;52.002;5.464;2022-11-20T08:36:05;4.47;;;3.15;;
55186;SDS011;55457;52.002;5.464;2022-11-20T08:38:30;3.88;;;3.20;;
55186;SDS011;55457;52.002;5.464;2022-11-20T08:41:00;4.25;;;3.25;;
55186;SDS011;55457;52.002;5.464;2022-11-20T08:43:45;6.95;;;3.63;;
55186;SDS011;55457;52.002;5.464;2022-11-20T08:46:10;5.18;;;3.75;;
55186;SDS011;55457;52.002;5.464;2022-11-20T08:48:35;6.78;;;3.15;;
55186;SDS011;55457;52.002;5.464;2022-11-20T08:51:01;7.03;;;3.20;;
55186;SDS011;55457;52.002;5.464;2022-11-20T08:53:26;4.47;;;3.38;;
55186;SDS011;55457;52.002;5.464;2022-11-20T08:55:52;11.05;;;4.15;;
55186;SDS011;55457;52.002;5.464;2022-11-20T08:58:18;7.13;;;3.63;;
55186;SDS011;55457;52.002;5.464;2022-11-20T09:00:43;6.50;;;3.60;;
55186;SDS011;55457;52.002;5.464;2022-11-20T09:03:08;10.50;;;3.47;;
55186;SDS011;55457;52.002;5.464;2022-11-20T09:05:34;5.65;;;2.97;;
55186;SDS011;55457;52.002;5.464;2022-11-20T09:07:59;6.05;;;4.25;;
55186;SDS011;55457;52.002;5.464;2022-11-20T09:10:25;11.27;;;4.05;;
55186;SDS011;55457;52.002;5.464;2022-11-20T09:12:52;8.25;;;3.78;;
55186;SDS011;55457;52.002;5.464;2022-11-20T09:15:17;7.43;;;4.25;;
55186;SDS011;55457;52.002;5.464;2022-11-20T09:17:50;7.07;;;4.05;;
55186;SDS011;55457;52.002;5.464;2022-11-20T09:20:33;11.23;;;3.95;;
55186;SDS011;55457;52.002;5.464;2022-11-20T09:22:58;8.23;;;3.88;;
55186;SDS011;55457;52.002;5.464;2022-11-20T09:25:23;8.88;;;3.78;;
55186;SDS011;55457;52.002;5.464;2022-11-20T09:27:55;9.50;;;4.20;;
55186;SDS011;55457;52.002;5.464;2022-11-20T09:30:24;8.98;;;3.80;;
55186;SDS011;55457;52.002;5.464;2022-11-20T09:32:49;15.90;;;4.85;;
55186;SDS011;55457;52.002;5.464;2022-11-20T09:35:15;14.63;;;3.65;;
55186;SDS011;55457;52.002;5.464;2022-11-20T09:37:41;21.40;;;4.40;;
55186;SDS011;55457;52.002;5.464;2022-11-20T09:40:06;10.73;;;3.72;;
55186;SDS011;55457;52.002;5.464;2022-11-20T09:42:59;17.07;;;5.10;;
55186;SDS011;55457;52.002;5.464;2022-11-20T09:48:00;13.33;;;4.60;;
55186;SDS011;55457;52.002;5.464;2022-11-20T09:50:52;19.55;;;5.53;;
55186;SDS011;55457;52.002;5.464;2022-11-20T09:56:16;19.58;;;5.95;;
55186;SDS011;55457;52.002;5.464;2022-11-20T09:58:43;13.68;;;5.03;;
55186;SDS011;55457;52.002;5.464;2022-11-20T10:01:15;11.98;;;3.92;;
55186;SDS011;55457;52.002;5.464;2022-11-20T10:06:15;15.07;;;4.78;;
55186;SDS011;55457;52.002;5.464;2022-11-20T10:08:45;15.60;;;4.82;;
55186;SDS011;55457;52.002;5.464;2022-11-20T10:11:25;22.25;;;4.10;;
55186;SDS011;55457;52.002;5.464;2022-11-20T10:16:41;16.77;;;5.13;;
55186;SDS011;55457;52.002;5.464;2022-11-20T10:25:01;11.85;;;4.90;;
55186;SDS011;55457;52.002;5.464;2022-11-20T10:32:36;13.30;;;5.50;;
55186;SDS011;55457;52.002;5.464;2022-11-20T10:41:03;13.30;;;4.10;;
55186;SDS011;55457;52.002;5.464;2022-11-20T10:43:49;12.07;;;3.92;;
55186;SDS011;55457;52.002;5.464;2022-11-20T10:46:20;11.55;;;4.65;;
55186;SDS011;55457;52.002;5.464;2022-11-20T10:48:47;12.32;;;4.63;;
55186;SDS011;55457;52.002;5.464;2022-11-20T10:56:39;16.77;;;5.07;;
55186;SDS011;55457;52.002;5.464;2022-11-20T11:01:48;12.60;;;5.40;;
55186;SDS011;55457;52.002;5.464;2022-11-20T11:06:58;12.68;;;4.95;;
55186;SDS011;55457;52.002;5.464;2022-11-20T11:09:34;8.40;;;5.05;;
55186;SDS011;55457;52.002;5.464;2022-11-20T11:12:08;9.98;;;4.15;;
55186;SDS011;55457;52.002;5.464;2022-11-20T11:14:48;10.63;;;4.07;;
55186;SDS011;55457;52.002;5.464;2022-11-20T11:17:20;12.00;;;4.88;;
55186;SDS011;55457;52.002;5.464;2022-11-20T11:19:45;10.25;;;5.07;;
55186;SDS011;55457;52.002;5.464;2022-11-20T11:22:22;10.65;;;4.88;;
55186;SDS011;55457;52.002;5.464;2022-11-20T11:24:53;10.02;;;4.50;;
55186;SDS011;55457;52.002;5.464;2022-11-20T11:27:19;11.75;;;3.90;;
55186;SDS011;55457;52.002;5.464;2022-11-20T11:29:45;9.65;;;4.35;;
55186;SDS011;55457;52.002;5.464;2022-11-20T11:32:12;10.68;;;5.00;;
55186;SDS011;55457;52.002;5.464;2022-11-20T11:34:39;13.73;;;4.50;;
55186;SDS011;55457;52.002;5.464;2022-11-20T11:37:05;11.13;;;4.10;;
55186;SDS011;55457;52.002;5.464;2022-11-20T11:39:40;15.80;;;6.00;;
55186;SDS011;55457;52.002;5.464;2022-11-20T11:42:07;10.57;;;4.88;;
55186;SDS011;55457;52.002;5.464;2022-11-20T11:44:37;14.57;;;5.43;;
55186;SDS011;55457;52.002;5.464;2022-11-20T11:47:32;7.65;;;4.40;;
55186;SDS011;55457;52.002;5.464;2022-11-20T11:52:33;14.38;;;5.03;;
55186;SDS011;55457;52.002;5.464;2022-11-20T11:55:07;10.38;;;4.63;;
55186;SDS011;55457;52.002;5.464;2022-11-20T12:00:17;9.40;;;4.85;;
55186;SDS011;55457;52.002;5.464;2022-11-20T12:15:53;8.25;;;4.50;;
55186;SDS011;55457;52.002;5.464;2022-11-20T12:18:20;9.57;;;5.07;;
55186;SDS011;55457;52.002;5.464;2022-11-20T12:23:28;9.48;;;4.55;;
55186;SDS011;55457;52.002;5.464;2022-11-20T12:25:57;10.25;;;4.65;;
55186;SDS011;55457;52.002;5.464;2022-11-20T12:34:13;11.35;;;5.57;;
55186;SDS011;55457;52.002;5.464;2022-11-20T12:39:27;10.95;;;4.75;;
55186;SDS011;55457;52.002;5.464;2022-11-20T12:53:40;11.70;;;5.43;;
55186;SDS011;55457;52.002;5.464;2022-11-20T12:59:11;11.80;;;5.90;;
55186;SDS011;55457;52.002;5.464;2022-11-20T13:01:55;11.00;;;5.70;;
55186;SDS011;55457;52.002;5.464;2022-11-20T13:06:53;15.60;;;6.22;;
55186;SDS011;55457;52.002;5.464;2022-11-20T13:09:20;13.05;;;5.45;;
55186;SDS011;55457;52.002;5.464;2022-11-20T13:11:50;13.93;;;5.07;;
55186;SDS011;55457;52.002;5.464;2022-11-20T13:14:21;10.88;;;5.15;;
55186;SDS011;55457;52.002;5.464;2022-11-20T13:19:52;15.30;;;5.10;;
55186;SDS011;55457;52.002;5.464;2022-11-20T13:22:26;11.27;;;5.10;;
55186;SDS011;55457;52.002;5.464;2022-11-20T13:24:53;10.07;;;5.47;;
55186;SDS011;55457;52.002;5.464;2022-11-20T13:27:20;10.00;;;6.20;;
55186;SDS011;55457;52.002;5.464;2022-11-20T13:30:01;9.68;;;5.85;;
55186;SDS011;55457;52.002;5.464;2022-11-20T13:32:58;13.25;;;6.05;;
55186;SDS011;55457;52.002;5.464;2022-11-20T13:38:08;10.13;;;5.22;;
55186;SDS011;55457;52.002;5.464;2022-11-20T13:40:49;11.85;;;5.32;;
55186;SDS011;55457;52.002;5.464;2022-11-20T13:43:22;12.30;;;5.57;;
55186;SDS011;55457;52.002;5.464;2022-11-20T13:46:21;13.90;;;5.78;;
55186;SDS011;55457;52.002;5.464;2022-11-20T13:48:41;11.00;;;5.03;;
55186;SDS011;55457;52.002;5.464;2022-11-20T13:51:12;12.18;;;5.28;;
55186;SDS011;55457;52.002;5.464;2022-11-20T13:59:06;10.68;;;5.07;;
55186;SDS011;55457;52.002;5.464;2022-11-20T14:01:40;9.77;;;5.63;;
55186;SDS011;55457;52.002;5.464;2022-11-20T14:04:11;9.35;;;5.90;;
55186;SDS011;55457;52.002;5.464;2022-11-20T14:06:42;10.35;;;5.90;;
55186;SDS011;55457;52.002;5.464;2022-11-20T14:09:13;10.32;;;4.95;;
55186;SDS011;55457;52.002;5.464;2022-11-20T14:11:51;11.07;;;5.35;;
55186;SDS011;55457;52.002;5.464;2022-11-20T14:14:17;9.98;;;5.55;;
55186;SDS011;55457;52.002;5.464;2022-11-20T14:16:45;15.48;;;7.28;;
55186;SDS011;55457;52.002;5.464;2022-11-20T14:21:46;8.35;;;5.32;;
55186;SDS011;55457;52.002;5.464;2022-11-20T14:24:12;9.45;;;5.55;;
55186;SDS011;55457;52.002;5.464;2022-11-20T14:26:41;10.45;;;6.35;;
55186;SDS011;55457;52.002;5.464;2022-11-20T14:29:16;10.35;;;5.70;;
55186;SDS011;55457;52.002;5.464;2022-11-20T14:31:44;9.70;;;5.93;;
55186;SDS011;55457;52.002;5.464;2022-11-20T14:34:18;9.43;;;5.90;;
55186;SDS011;55457;52.002;5.464;2022-11-20T14:37:03;9.55;;;5.05;;
55186;SDS011;55457;52.002;5.464;2022-11-20T14:39:37;9.88;;;6.50;;
55186;SDS011;55457;52.002;5.464;2022-11-20T14:42:17;17.33;;;6.20;;
55186;SDS011;55457;52.002;5.464;2022-11-20T14:44:46;11.43;;;6.15;;
55186;SDS011;55457;52.002;5.464;2022-11-20T14:47:14;13.52;;;6.00;;
55186;SDS011;55457;52.002;5.464;2022-11-20T14:49:44;16.60;;;6.00;;
55186;SDS011;55457;52.002;5.464;2022-11-20T14:52:14;13.40;;;5.80;;
55186;SDS011;55457;52.002;5.464;2022-11-20T14:54:45;20.23;;;6.80;;
55186;SDS011;55457;52.002;5.464;2022-11-20T15:02:52;17.85;;;6.20;;
55186;SDS011;55457;52.002;5.464;2022-11-20T15:05:18;14.13;;;6.45;;
55186;SDS011;55457;52.002;5.464;2022-11-20T15:07:46;14.65;;;6.50;;
55186;SDS011;55457;52.002;5.464;2022-11-20T15:12:47;11.38;;;5.53;;
55186;SDS011;55457;52.002;5.464;2022-11-20T15:15:15;14.18;;;6.47;;
55186;SDS011;55457;52.002;5.464;2022-11-20T15:17:44;11.35;;;6.07;;
55186;SDS011;55457;52.002;5.464;2022-11-20T15:20:13;14.52;;;6.40;;
55186;SDS011;55457;52.002;5.464;2022-11-20T15:22:41;16.67;;;6.63;;
55186;SDS011;55457;52.002;5.464;2022-11-20T15:25:16;13.20;;;6.07;;
55186;SDS011;55457;52.002;5.464;2022-11-20T15:27:43;10.98;;;6.38;;
55186;SDS011;55457;52.002;5.464;2022-11-20T15:30:16;10.40;;;6.72;;
55186;SDS011;55457;52.002;5.464;2022-11-20T15:32:43;17.13;;;7.43;;
55186;SDS011;55457;52.002;5.464;2022-11-20T15:35:10;16.08;;;7.00;;
55186;SDS011;55457;52.002;5.464;2022-11-20T15:37:36;15.00;;;7.20;;
55186;SDS011;55457;52.002;5.464;2022-11-20T15:40:02;15.85;;;6.28;;
55186;SDS011;55457;52.002;5.464;2022-11-20T15:42:28;12.32;;;6.10;;
55186;SDS011;55457;52.002;5.464;2022-11-20T15:44:54;12.23;;;6.30;;
55186;SDS011;55457;52.002;5.464;2022-11-20T15:47:19;11.07;;;5.97;;
55186;SDS011;55457;52.002;5.464;2022-11-20T15:49:51;11.23;;;6.10;;
55186;SDS011;55457;52.002;5.464;2022-11-20T15:52:16;11.85;;;6.57;;
55186;SDS011;55457;52.002;5.464;2022-11-20T15:54:41;11.48;;;6.32;;
55186;SDS011;55457;52.002;5.464;2022-11-20T15:57:07;12.15;;;6.20;;
55186;SDS011;55457;52.002;5.464;2022-11-20T15:59:32;12.18;;;6.53;;
55186;SDS011;55457;52.002;5.464;2022-11-20T16:01:57;16.27;;;6.72;;
55186;SDS011;55457;52.002;5.464;2022-11-20T16:04:23;13.25;;;6.70;;
55186;SDS011;55457;52.002;5.464;2022-11-20T16:06:48;10.27;;;5.65;;
55186;SDS011;55457;52.002;5.464;2022-11-20T16:09:13;15.07;;;6.93;;
55186;SDS011;55457;52.002;5.464;2022-11-20T16:11:38;7.88;;;5.20;;
55186;SDS011;55457;52.002;5.464;2022-11-20T16:14:04;14.55;;;5.72;;
55186;SDS011;55457;52.002;5.464;2022-11-20T16:16:49;10.27;;;5.57;;
55186;SDS011;55457;52.002;5.464;2022-11-20T16:19:14;16.77;;;6.18;;
55186;SDS011;55457;52.002;5.464;2022-11-20T16:21:40;12.02;;;6.38;;
55186;SDS011;55457;52.002;5.464;2022-11-20T16:24:07;14.90;;;6.15;;
55186;SDS011;55457;52.002;5.464;2022-11-20T16:26:37;12.50;;;5.82;;
55186;SDS011;55457;52.002;5.464;2022-11-20T16:29:04;13.75;;;5.78;;
55186;SDS011;55457;52.002;5.464;2022-11-20T16:31:31;9.48;;;5.68;;
55186;SDS011;55457;52.002;5.464;2022-11-20T16:33:58;10.40;;;6.18;;
55186;SDS011;55457;52.002;5.464;2022-11-20T16:36:25;14.95;;;6.90;;
55186;SDS011;55457;52.002;5.464;2022-11-20T16:38:56;15.68;;;6.50;;
55186;SDS011;55457;52.002;5.464;2022-11-20T16:41:23;13.30;;;6.57;;
55186;SDS011;55457;52.002;5.464;2022-11-20T16:43:54;12.73;;;6.57;;
55186;SDS011;55457;52.002;5.464;2022-11-20T16:46:22;17.70;;;6.27;;
55186;SDS011;55457;52.002;5.464;2022-11-20T16:48:55;14.00;;;6.15;;
55186;SDS011;55457;52.002;5.464;2022-11-20T16:51:47;18.10;;;6.50;;